sensor_id;sensor_type;location;lat;lon;timestamp;pressure;altitude;pressure_sealevel;temperature;humidity
8699;BME280;4386;51.236;6.742;2022-09-16T00:00:31;100593.88;;;16.19;70.09
8699;BME280;4386;51.236;6.742;2022-09-16T00:01:34;100606.25;;;16.20;70.22
8699;BME280;4386;51.236;6.742;2022-09-16T00:02:37;100602.56;;;16.21;70.10
8699;BME280;4386;51.236;6.742;2022-09-16T00:03:40;100599.91;;;16.21;70.06
8699;BME280;4386;51.236;6.742;2022-09-16T00:04:43;100602.56;;;16.21;70.01
8699;BME280;4386;51.236;6.742;2022-09-16T00:05:46;100605.25;;;16.21;70.13
8699;BME280;4386;51.236;6.742;2022-09-16T00:06:51;100608.75;;;16.21;69.81
8699;BME280;4386;51.236;6.742;2022-09-16T00:07:53;100615.94;;;16.21;70.08
8699;BME280;4386;51.236;6.742;2022-09-16T00:08:57;100618.63;;;16.21;69.63
8699;BME280;4386;51.236;6.742;2022-09-16T00:10:00;100613.25;;;16.21;69.67
8699;BME280;4386;51.236;6.742;2022-09-16T00:11:03;100620.63;;;16.19;70.00
8699;BME280;4386;51.236;6.742;2022-09-16T00:12:05;100620.63;;;16.19;69.54
8699;BME280;4386;51.236;6.742;2022-09-16T00:13:08;100619.91;;;16.16;69.61
8699;BME280;4386;51.236;6.742;2022-09-16T00:14:10;100619.25;;;16.14;69.70
8699;BME280;4386;51.236;6.742;2022-09-16T00:15:13;100623.75;;;16.14;69.49
8699;BME280;4386;51.236;6.742;2022-09-16T00:16:18;100627.44;;;16.13;69.52
8699;BME280;4386;51.236;6.742;2022-09-16T00:17:21;100631.94;;;16.12;69.68
8699;BME280;4386;51.236;6.742;2022-09-16T00:18:23;100626.59;;;16.12;69.32
8699;BME280;4386;51.236;6.742;2022-09-16T00:19:25;100627.59;;;16.11;69.62
8699;BME280;4386;51.236;6.742;2022-09-16T00:20:27;100620.56;;;16.10;69.54
8699;BME280;4386;51.236;6.742;2022-09-16T00:21:30;100624.06;;;16.11;69.36
8699;BME280;4386;51.236;6.742;2022-09-16T00:22:33;100630.25;;;16.11;69.40
8699;BME280;4386;51.236;6.742;2022-09-16T00:23:36;100625.91;;;16.10;69.52
8699;BME280;4386;51.236;6.742;2022-09-16T00:24:38;100627.59;;;16.11;69.22
8699;BME280;4386;51.236;6.742;2022-09-16T00:25:40;100627.72;;;16.10;69.47
8699;BME280;4386;51.236;6.742;2022-09-16T00:26:42;100628.56;;;16.10;69.33
8699;BME280;4386;51.236;6.742;2022-09-16T00:27:46;100627.91;;;16.08;69.14
8699;BME280;4386;51.236;6.742;2022-09-16T00:28:49;100628.88;;;16.07;69.33
8699;BME280;4386;51.236;6.742;2022-09-16T00:29:52;100627.22;;;16.06;69.10
8699;BME280;4386;51.236;6.742;2022-09-16T00:30:57;100630.19;;;16.03;69.20
8699;BME280;4386;51.236;6.742;2022-09-16T00:32:00;100632.19;;;16.01;69.23
8699;BME280;4386;51.236;6.742;2022-09-16T00:33:02;100621.81;;;15.98;69.29
8699;BME280;4386;51.236;6.742;2022-09-16T00:34:05;100632.81;;;15.95;69.34
8699;BME280;4386;51.236;6.742;2022-09-16T00:35:06;100625.97;;;15.93;69.30
8699;BME280;4386;51.236;6.742;2022-09-16T00:36:11;100625.44;;;15.89;69.36
8699;BME280;4386;51.236;6.742;2022-09-16T00:37:13;100636.44;;;15.86;69.26
8699;BME280;4386;51.236;6.742;2022-09-16T00:38:17;100633.78;;;15.86;69.22
8699;BME280;4386;51.236;6.742;2022-09-16T00:39:18;100629.72;;;15.82;69.37
8699;BME280;4386;51.236;6.742;2022-09-16T00:40:21;100631.56;;;15.82;69.36
8699;BME280;4386;51.236;6.742;2022-09-16T00:41:24;100629.19;;;15.79;69.54
8699;BME280;4386;51.236;6.742;2022-09-16T00:42:28;100632.00;;;15.77;69.59
8699;BME280;4386;51.236;6.742;2022-09-16T00:43:46;100629.50;;;15.76;69.62
8699;BME280;4386;51.236;6.742;2022-09-16T00:44:55;100634.00;;;15.75;69.70
8699;BME280;4386;51.236;6.742;2022-09-16T00:46:01;100628.13;;;15.72;69.90
8699;BME280;4386;51.236;6.742;2022-09-16T00:47:06;100639.97;;;15.69;69.80
8699;BME280;4386;51.236;6.742;2022-09-16T00:48:11;100632.28;;;15.66;69.94
8699;BME280;4386;51.236;6.742;2022-09-16T00:49:21;100632.41;;;15.64;70.03
8699;BME280;4386;51.236;6.742;2022-09-16T00:50:29;100638.06;;;15.61;70.05
8699;BME280;4386;51.236;6.742;2022-09-16T00:51:36;100635.69;;;15.58;70.02
8699;BME280;4386;51.236;6.742;2022-09-16T00:52:39;100635.88;;;15.57;70.07
8699;BME280;4386;51.236;6.742;2022-09-16T00:53:47;100641.34;;;15.55;70.16
8699;BME280;4386;51.236;6.742;2022-09-16T00:54:52;100634.50;;;15.53;70.31
8699;BME280;4386;51.236;6.742;2022-09-16T00:55:57;100628.47;;;15.51;70.12
8699;BME280;4386;51.236;6.742;2022-09-16T00:57:00;100629.47;;;15.50;70.50
8699;BME280;4386;51.236;6.742;2022-09-16T00:58:09;100627.78;;;15.49;70.42
8699;BME280;4386;51.236;6.742;2022-09-16T00:59:15;100633.25;;;15.47;70.54
8699;BME280;4386;51.236;6.742;2022-09-16T01:00:19;100639.72;;;15.45;70.73
8699;BME280;4386;51.236;6.742;2022-09-16T01:01:21;100639.03;;;15.43;70.87
8699;BME280;4386;51.236;6.742;2022-09-16T01:02:24;100638.38;;;15.41;70.63
8699;BME280;4386;51.236;6.742;2022-09-16T01:03:28;100635.84;;;15.39;70.83
8699;BME280;4386;51.236;6.742;2022-09-16T01:04:37;100628.81;;;15.38;70.70
8699;BME280;4386;51.236;6.742;2022-09-16T01:05:41;100630.66;;;15.38;71.18
8699;BME280;4386;51.236;6.742;2022-09-16T01:06:45;100630.66;;;15.38;70.97
8699;BME280;4386;51.236;6.742;2022-09-16T01:07:48;100628.13;;;15.36;71.27
8699;BME280;4386;51.236;6.742;2022-09-16T01:08:54;100628.97;;;15.37;71.12
8699;BME280;4386;51.236;6.742;2022-09-16T01:09:56;100636.16;;;15.36;71.23
8699;BME280;4386;51.236;6.742;2022-09-16T01:11:00;100633.34;;;15.38;71.30
8699;BME280;4386;51.236;6.742;2022-09-16T01:12:01;100626.31;;;15.37;71.20
8699;BME280;4386;51.236;6.742;2022-09-16T01:13:07;100631.47;;;15.38;71.33
8699;BME280;4386;51.236;6.742;2022-09-16T01:14:10;100627.81;;;15.39;71.51
8699;BME280;4386;51.236;6.742;2022-09-16T01:15:36;100625.81;;;15.41;71.13
8699;BME280;4386;51.236;6.742;2022-09-16T01:16:42;100621.31;;;15.42;71.22
8699;BME280;4386;51.236;6.742;2022-09-16T01:17:53;100625.69;;;15.43;71.28
8699;BME280;4386;51.236;6.742;2022-09-16T01:19:02;100627.38;;;15.44;71.36
8699;BME280;4386;51.236;6.742;2022-09-16T01:20:24;100632.53;;;15.45;71.50
8699;BME280;4386;51.236;6.742;2022-09-16T01:21:39;100625.38;;;15.46;71.58
8699;BME280;4386;51.236;6.742;2022-09-16T01:23:00;100631.44;;;15.48;71.53
8699;BME280;4386;51.236;6.742;2022-09-16T01:24:31;100627.63;;;15.50;71.37
8699;BME280;4386;51.236;6.742;2022-09-16T01:25:47;100625.81;;;15.51;71.63
8699;BME280;4386;51.236;6.742;2022-09-16T01:27:23;100616.78;;;15.52;71.50
8699;BME280;4386;51.236;6.742;2022-09-16T01:28:49;100615.78;;;15.53;71.53
8699;BME280;4386;51.236;6.742;2022-09-16T01:30:37;100618.16;;;15.56;71.58
8699;BME280;4386;51.236;6.742;2022-09-16T01:31:45;100619.00;;;15.56;71.40
8699;BME280;4386;51.236;6.742;2022-09-16T01:33:00;100614.50;;;15.57;71.60
8699;BME280;4386;51.236;6.742;2022-09-16T01:34:12;100618.00;;;15.57;71.76
8699;BME280;4386;51.236;6.742;2022-09-16T01:35:22;100610.81;;;15.58;71.86
8699;BME280;4386;51.236;6.742;2022-09-16T01:36:39;100610.69;;;15.59;71.96
8699;BME280;4386;51.236;6.742;2022-09-16T01:37:51;100608.00;;;15.59;71.95
8699;BME280;4386;51.236;6.742;2022-09-16T01:39:06;100606.19;;;15.60;72.08
8699;BME280;4386;51.236;6.742;2022-09-16T01:40:13;100615.03;;;15.60;71.96
8699;BME280;4386;51.236;6.742;2022-09-16T01:41:24;100609.53;;;15.62;71.99
8699;BME280;4386;51.236;6.742;2022-09-16T01:42:34;100614.03;;;15.61;71.99
8699;BME280;4386;51.236;6.742;2022-09-16T01:43:44;100611.22;;;15.63;71.79
8699;BME280;4386;51.236;6.742;2022-09-16T01:44:56;100616.25;;;15.66;71.92
8699;BME280;4386;51.236;6.742;2022-09-16T01:46:11;100611.88;;;15.65;71.67
8699;BME280;4386;51.236;6.742;2022-09-16T01:47:20;100621.72;;;15.64;71.63
8699;BME280;4386;51.236;6.742;2022-09-16T01:48:30;100621.72;;;15.64;71.66
8699;BME280;4386;51.236;6.742;2022-09-16T01:49:41;100620.59;;;15.67;71.84
8699;BME280;4386;51.236;6.742;2022-09-16T01:50:52;100631.28;;;15.67;71.75
8699;BME280;4386;51.236;6.742;2022-09-16T01:52:05;100625.94;;;15.67;71.77
8699;BME280;4386;51.236;6.742;2022-09-16T01:53:15;100625.78;;;15.69;71.66
8699;BME280;4386;51.236;6.742;2022-09-16T01:54:23;100627.59;;;15.68;71.72
8699;BME280;4386;51.236;6.742;2022-09-16T01:55:31;100627.78;;;15.67;71.68
8699;BME280;4386;51.236;6.742;2022-09-16T01:56:39;100625.94;;;15.67;71.83
8699;BME280;4386;51.236;6.742;2022-09-16T01:57:48;100628.44;;;15.69;71.79
8699;BME280;4386;51.236;6.742;2022-09-16T01:58:54;100623.94;;;15.69;71.85
8699;BME280;4386;51.236;6.742;2022-09-16T01:59:59;100624.78;;;15.70;71.87
8699;BME280;4386;51.236;6.742;2022-09-16T02:01:09;100620.44;;;15.69;71.73
8699;BME280;4386;51.236;6.742;2022-09-16T02:02:17;100620.28;;;15.70;71.83
8699;BME280;4386;51.236;6.742;2022-09-16T02:03:23;100615.94;;;15.69;71.75
8699;BME280;4386;51.236;6.742;2022-09-16T02:04:32;100617.63;;;15.70;71.61
8699;BME280;4386;51.236;6.742;2022-09-16T02:05:40;100617.75;;;15.69;71.89
8699;BME280;4386;51.236;6.742;2022-09-16T02:06:48;100616.06;;;15.68;71.72
8699;BME280;4386;51.236;6.742;2022-09-16T02:07:53;100609.91;;;15.67;71.90
8699;BME280;4386;51.236;6.742;2022-09-16T02:09:01;100610.72;;;15.68;71.95
8699;BME280;4386;51.236;6.742;2022-09-16T02:10:09;100610.91;;;15.66;71.92
8699;BME280;4386;51.236;6.742;2022-09-16T02:11:16;100606.41;;;15.67;72.00
8699;BME280;4386;51.236;6.742;2022-09-16T02:12:22;100607.38;;;15.66;71.93
8699;BME280;4386;51.236;6.742;2022-09-16T02:13:29;100605.69;;;15.64;71.83
8699;BME280;4386;51.236;6.742;2022-09-16T02:14:35;100593.19;;;15.65;71.64
8699;BME280;4386;51.236;6.742;2022-09-16T02:15:41;100598.53;;;15.65;71.80
8699;BME280;4386;51.236;6.742;2022-09-16T02:16:49;100593.19;;;15.65;71.69
8699;BME280;4386;51.236;6.742;2022-09-16T02:17:58;100596.69;;;15.66;71.77
8699;BME280;4386;51.236;6.742;2022-09-16T02:19:09;100597.53;;;15.66;71.77
8699;BME280;4386;51.236;6.742;2022-09-16T02:20:16;100596.56;;;15.67;71.57
8699;BME280;4386;51.236;6.742;2022-09-16T02:21:23;100598.22;;;15.68;71.84
8699;BME280;4386;51.236;6.742;2022-09-16T02:22:31;100600.75;;;15.70;71.51
8699;BME280;4386;51.236;6.742;2022-09-16T02:23:39;100597.38;;;15.68;71.56
8699;BME280;4386;51.236;6.742;2022-09-16T02:24:44;100599.91;;;15.69;71.54
8699;BME280;4386;51.236;6.742;2022-09-16T02:25:48;100605.25;;;15.69;71.70
8699;BME280;4386;51.236;6.742;2022-09-16T02:26:54;100600.75;;;15.70;71.71
8699;BME280;4386;51.236;6.742;2022-09-16T02:27:59;100596.06;;;15.72;71.70
8699;BME280;4386;51.236;6.742;2022-09-16T02:29:07;100598.75;;;15.72;71.37
8699;BME280;4386;51.236;6.742;2022-09-16T02:30:14;100603.94;;;15.73;71.51
8699;BME280;4386;51.236;6.742;2022-09-16T02:31:21;100605.59;;;15.74;71.64
8699;BME280;4386;51.236;6.742;2022-09-16T02:32:27;100604.78;;;15.74;71.55
8699;BME280;4386;51.236;6.742;2022-09-16T02:33:36;100605.59;;;15.74;71.38
8699;BME280;4386;51.236;6.742;2022-09-16T02:34:43;100599.28;;;15.75;71.48
8699;BME280;4386;51.236;6.742;2022-09-16T02:35:49;100596.59;;;15.75;71.22
8699;BME280;4386;51.236;6.742;2022-09-16T02:36:55;100595.44;;;15.78;71.51
8699;BME280;4386;51.236;6.742;2022-09-16T02:38:03;100594.59;;;15.77;71.43
8699;BME280;4386;51.236;6.742;2022-09-16T02:39:10;100597.13;;;15.79;71.43
8699;BME280;4386;51.236;6.742;2022-09-16T02:40:16;100597.13;;;15.79;71.25
8699;BME280;4386;51.236;6.742;2022-09-16T02:41:20;100600.78;;;15.78;71.65
8699;BME280;4386;51.236;6.742;2022-09-16T02:42:24;100599.94;;;15.77;71.26
8699;BME280;4386;51.236;6.742;2022-09-16T02:43:26;100601.63;;;15.78;71.55
8699;BME280;4386;51.236;6.742;2022-09-16T02:44:30;100606.97;;;15.78;71.48
8699;BME280;4386;51.236;6.742;2022-09-16T02:45:37;100598.28;;;15.76;71.62
8699;BME280;4386;51.236;6.742;2022-09-16T02:46:52;100595.63;;;15.76;71.72
8699;BME280;4386;51.236;6.742;2022-09-16T02:48:01;100597.44;;;15.76;71.62
8699;BME280;4386;51.236;6.742;2022-09-16T02:49:11;100596.59;;;15.75;71.54
8699;BME280;4386;51.236;6.742;2022-09-16T02:50:18;100594.91;;;15.74;71.85
8699;BME280;4386;51.236;6.742;2022-09-16T02:51:32;100599.44;;;15.74;71.96
8699;BME280;4386;51.236;6.742;2022-09-16T02:52:43;100603.09;;;15.73;72.03
8699;BME280;4386;51.236;6.742;2022-09-16T02:53:51;100589.88;;;15.71;71.65
8699;BME280;4386;51.236;6.742;2022-09-16T02:55:00;100592.72;;;15.70;71.70
8699;BME280;4386;51.236;6.742;2022-09-16T02:56:12;100597.22;;;15.69;71.86
8699;BME280;4386;51.236;6.742;2022-09-16T02:57:16;100593.03;;;15.67;72.12
8699;BME280;4386;51.236;6.742;2022-09-16T02:58:19;100590.50;;;15.65;72.23
8699;BME280;4386;51.236;6.742;2022-09-16T02:59:20;100589.84;;;15.63;72.25
8699;BME280;4386;51.236;6.742;2022-09-16T03:00:23;100592.66;;;15.61;72.14
8699;BME280;4386;51.236;6.742;2022-09-16T03:01:27;100590.16;;;15.60;72.40
8699;BME280;4386;51.236;6.742;2022-09-16T03:02:30;100588.47;;;15.59;72.46
8699;BME280;4386;51.236;6.742;2022-09-16T03:03:34;100588.47;;;15.59;72.78
8699;BME280;4386;51.236;6.742;2022-09-16T03:04:37;100591.13;;;15.59;72.65
8699;BME280;4386;51.236;6.742;2022-09-16T03:05:59;100594.78;;;15.58;72.94
8699;BME280;4386;51.236;6.742;2022-09-16T03:07:09;100588.78;;;15.56;72.90
8699;BME280;4386;51.236;6.742;2022-09-16T03:08:12;100589.75;;;15.55;72.95
8699;BME280;4386;51.236;6.742;2022-09-16T03:09:15;100594.25;;;15.54;73.08
8699;BME280;4386;51.236;6.742;2022-09-16T03:10:22;100587.25;;;15.53;73.17
8699;BME280;4386;51.236;6.742;2022-09-16T03:12:02;100588.41;;;15.51;73.23
8699;BME280;4386;51.236;6.742;2022-09-16T03:13:11;100586.72;;;15.50;73.32
8699;BME280;4386;51.236;6.742;2022-09-16T03:14:28;100588.69;;;15.48;73.29
8699;BME280;4386;51.236;6.742;2022-09-16T03:15:44;100591.38;;;15.48;73.55
8699;BME280;4386;51.236;6.742;2022-09-16T03:16:57;100591.38;;;15.48;73.60
8699;BME280;4386;51.236;6.742;2022-09-16T03:18:16;100596.69;;;15.48;73.60
8699;BME280;4386;51.236;6.742;2022-09-16T03:19:26;100588.69;;;15.48;73.60
8699;BME280;4386;51.236;6.742;2022-09-16T03:20:42;100592.34;;;15.47;73.62
8699;BME280;4386;51.236;6.742;2022-09-16T03:21:54;100594.31;;;15.45;74.00
8699;BME280;4386;51.236;6.742;2022-09-16T03:23:05;100592.66;;;15.44;73.86
8699;BME280;4386;51.236;6.742;2022-09-16T03:24:11;100591.94;;;15.42;73.80
8699;BME280;4386;51.236;6.742;2022-09-16T03:25:26;100592.97;;;15.41;73.80
8699;BME280;4386;51.236;6.742;2022-09-16T03:26:37;100593.94;;;15.40;74.28
8699;BME280;4386;51.236;6.742;2022-09-16T03:27:48;100595.78;;;15.39;74.07
8699;BME280;4386;51.236;6.742;2022-09-16T03:29:01;100594.25;;;15.37;73.93
8699;BME280;4386;51.236;6.742;2022-09-16T03:30:07;100591.59;;;15.37;74.60
8699;BME280;4386;51.236;6.742;2022-09-16T03:31:16;100594.41;;;15.35;74.39
8699;BME280;4386;51.236;6.742;2022-09-16T03:32:22;100587.41;;;15.34;74.42
8699;BME280;4386;51.236;6.742;2022-09-16T03:33:28;100597.25;;;15.34;74.44
8699;BME280;4386;51.236;6.742;2022-09-16T03:34:36;100585.84;;;15.32;74.61
8699;BME280;4386;51.236;6.742;2022-09-16T03:35:43;100590.50;;;15.30;74.72
8699;BME280;4386;51.236;6.742;2022-09-16T03:36:49;100591.66;;;15.27;74.32
8699;BME280;4386;51.236;6.742;2022-09-16T03:37:55;100587.47;;;15.25;74.82
8699;BME280;4386;51.236;6.742;2022-09-16T03:38:59;100594.78;;;15.23;74.63
8699;BME280;4386;51.236;6.742;2022-09-16T03:40:06;100589.75;;;15.20;75.08
8699;BME280;4386;51.236;6.742;2022-09-16T03:41:11;100594.56;;;15.16;75.13
8699;BME280;4386;51.236;6.742;2022-09-16T03:42:13;100593.72;;;15.16;74.93
8699;BME280;4386;51.236;6.742;2022-09-16T03:43:17;100591.34;;;15.12;75.08
8699;BME280;4386;51.236;6.742;2022-09-16T03:44:19;100594.19;;;15.11;75.14
8699;BME280;4386;51.236;6.742;2022-09-16T03:45:22;100583.66;;;15.09;75.33
8699;BME280;4386;51.236;6.742;2022-09-16T03:46:24;100590.81;;;15.09;75.33
8699;BME280;4386;51.236;6.742;2022-09-16T03:47:29;100591.81;;;15.08;75.42
8699;BME280;4386;51.236;6.742;2022-09-16T03:48:30;100589.28;;;15.06;75.55
8699;BME280;4386;51.236;6.742;2022-09-16T03:49:35;100592.13;;;15.05;75.54
8699;BME280;4386;51.236;6.742;2022-09-16T03:50:36;100589.59;;;15.03;75.59
8699;BME280;4386;51.236;6.742;2022-09-16T03:51:39;100587.06;;;15.02;75.55
8699;BME280;4386;51.236;6.742;2022-09-16T03:52:41;100592.56;;;15.00;75.42
8699;BME280;4386;51.236;6.742;2022-09-16T03:53:43;100590.88;;;14.99;75.94
8699;BME280;4386;51.236;6.742;2022-09-16T03:54:45;100582.88;;;14.99;75.89
8699;BME280;4386;51.236;6.742;2022-09-16T03:55:47;100582.03;;;14.99;75.80
8699;BME280;4386;51.236;6.742;2022-09-16T03:56:49;100590.22;;;14.97;76.06
8699;BME280;4386;51.236;6.742;2022-09-16T03:57:52;100583.19;;;14.96;76.05
8699;BME280;4386;51.236;6.742;2022-09-16T03:58:53;100576.31;;;14.94;75.91
8699;BME280;4386;51.236;6.742;2022-09-16T03:59:56;100579.13;;;14.92;75.97
8699;BME280;4386;51.236;6.742;2022-09-16T04:00:57;100579.28;;;14.91;76.16
8699;BME280;4386;51.236;6.742;2022-09-16T04:02:01;100579.44;;;14.89;75.82
8699;BME280;4386;51.236;6.742;2022-09-16T04:03:03;100578.75;;;14.87;76.41
8699;BME280;4386;51.236;6.742;2022-09-16T04:04:06;100577.06;;;14.86;76.17
8699;BME280;4386;51.236;6.742;2022-09-16T04:05:09;100576.53;;;14.83;76.47
8699;BME280;4386;51.236;6.742;2022-09-16T04:06:12;100583.56;;;14.84;76.27
8699;BME280;4386;51.236;6.742;2022-09-16T04:07:14;100577.38;;;14.83;76.55
8699;BME280;4386;51.236;6.742;2022-09-16T04:08:16;100574.88;;;14.82;76.44
8699;BME280;4386;51.236;6.742;2022-09-16T04:09:18;100572.34;;;14.80;76.55
8699;BME280;4386;51.236;6.742;2022-09-16T04:10:20;100575.97;;;14.79;76.60
8699;BME280;4386;51.236;6.742;2022-09-16T04:11:22;100570.81;;;14.78;76.58
8699;BME280;4386;51.236;6.742;2022-09-16T04:12:25;100569.00;;;14.78;76.62
8699;BME280;4386;51.236;6.742;2022-09-16T04:13:28;100565.63;;;14.76;76.79
8699;BME280;4386;51.236;6.742;2022-09-16T04:14:31;100567.31;;;14.77;76.78
8699;BME280;4386;51.236;6.742;2022-09-16T04:15:35;100569.13;;;14.77;76.92
8699;BME280;4386;51.236;6.742;2022-09-16T04:16:37;100567.31;;;14.77;76.74
8699;BME280;4386;51.236;6.742;2022-09-16T04:17:45;100577.66;;;14.80;76.94
8699;BME280;4386;51.236;6.742;2022-09-16T04:18:47;100567.00;;;14.80;76.86
8699;BME280;4386;51.236;6.742;2022-09-16T04:19:50;100569.53;;;14.82;76.86
8699;BME280;4386;51.236;6.742;2022-09-16T04:20:56;100574.69;;;14.83;77.19
8699;BME280;4386;51.236;6.742;2022-09-16T04:22:01;100574.56;;;14.85;77.03
8699;BME280;4386;51.236;6.742;2022-09-16T04:23:04;100570.06;;;14.85;76.88
8699;BME280;4386;51.236;6.742;2022-09-16T04:24:06;100573.41;;;14.87;77.09
8699;BME280;4386;51.236;6.742;2022-09-16T04:25:15;100575.09;;;14.88;77.03
8699;BME280;4386;51.236;6.742;2022-09-16T04:26:16;100570.44;;;14.90;77.13
8699;BME280;4386;51.236;6.742;2022-09-16T04:27:19;100577.47;;;14.91;77.16
8699;BME280;4386;51.236;6.742;2022-09-16T04:28:21;100587.13;;;14.92;76.90
8699;BME280;4386;51.236;6.742;2022-09-16T04:29:23;100588.81;;;14.93;77.09
8699;BME280;4386;51.236;6.742;2022-09-16T04:30:25;100584.47;;;14.92;77.00
8699;BME280;4386;51.236;6.742;2022-09-16T04:31:27;100579.13;;;14.92;77.24
8699;BME280;4386;51.236;6.742;2022-09-16T04:32:29;100580.28;;;14.90;77.46
8699;BME280;4386;51.236;6.742;2022-09-16T04:33:34;100582.94;;;14.90;77.36
8699;BME280;4386;51.236;6.742;2022-09-16T04:34:35;100588.16;;;14.91;77.78
8699;BME280;4386;51.236;6.742;2022-09-16T04:35:38;100589.13;;;14.90;77.78
8699;BME280;4386;51.236;6.742;2022-09-16T04:36:41;100582.94;;;14.90;77.75
8699;BME280;4386;51.236;6.742;2022-09-16T04:37:45;100586.59;;;14.89;77.91
8699;BME280;4386;51.236;6.742;2022-09-16T04:38:48;100583.13;;;14.88;77.97
8699;BME280;4386;51.236;6.742;2022-09-16T04:39:51;100583.78;;;14.90;77.99
8699;BME280;4386;51.236;6.742;2022-09-16T04:40:58;100578.44;;;14.90;78.45
8699;BME280;4386;51.236;6.742;2022-09-16T04:42:01;100586.47;;;14.90;78.40
8699;BME280;4386;51.236;6.742;2022-09-16T04:43:08;100584.63;;;14.91;78.34
8699;BME280;4386;51.236;6.742;2022-09-16T04:44:09;100587.31;;;14.91;78.85
8699;BME280;4386;51.236;6.742;2022-09-16T04:45:12;100584.63;;;14.91;79.01
8699;BME280;4386;51.236;6.742;2022-09-16T04:46:14;100578.31;;;14.92;78.96
8699;BME280;4386;51.236;6.742;2022-09-16T04:47:16;100579.84;;;14.94;78.75
8699;BME280;4386;51.236;6.742;2022-09-16T04:48:20;100579.66;;;14.96;78.91
8699;BME280;4386;51.236;6.742;2022-09-16T04:49:22;100581.22;;;14.98;78.90
8699;BME280;4386;51.236;6.742;2022-09-16T04:50:24;100579.53;;;14.97;79.24
8699;BME280;4386;51.236;6.742;2022-09-16T04:51:28;100579.53;;;14.97;79.09
8699;BME280;4386;51.236;6.742;2022-09-16T04:52:31;100576.03;;;14.97;79.24
8699;BME280;4386;51.236;6.742;2022-09-16T04:53:35;100571.53;;;14.97;79.50
8699;BME280;4386;51.236;6.742;2022-09-16T04:54:37;100587.53;;;14.97;79.54
8699;BME280;4386;51.236;6.742;2022-09-16T04:55:39;100579.53;;;14.97;79.41
8699;BME280;4386;51.236;6.742;2022-09-16T04:56:41;100576.03;;;14.97;79.59
8699;BME280;4386;51.236;6.742;2022-09-16T04:57:44;100573.34;;;14.97;79.85
8699;BME280;4386;51.236;6.742;2022-09-16T04:58:46;100571.66;;;14.96;79.67
8699;BME280;4386;51.236;6.742;2022-09-16T04:59:49;100579.53;;;14.97;79.63
8699;BME280;4386;51.236;6.742;2022-09-16T05:00:51;100575.16;;;14.96;80.02
8699;BME280;4386;51.236;6.742;2022-09-16T05:01:53;100574.19;;;14.97;79.92
8699;BME280;4386;51.236;6.742;2022-09-16T05:02:55;100579.53;;;14.97;79.79
8699;BME280;4386;51.236;6.742;2022-09-16T05:03:59;100568.84;;;14.97;79.88
8699;BME280;4386;51.236;6.742;2022-09-16T05:05:01;100569.84;;;14.96;80.12
8699;BME280;4386;51.236;6.742;2022-09-16T05:06:06;100569.53;;;14.99;80.30
8699;BME280;4386;51.236;6.742;2022-09-16T05:07:08;100568.69;;;14.99;80.39
8699;BME280;4386;51.236;6.742;2022-09-16T05:08:12;100566.88;;;14.99;80.01
8699;BME280;4386;51.236;6.742;2022-09-16T05:09:14;100570.69;;;14.97;80.19
8699;BME280;4386;51.236;6.742;2022-09-16T05:10:16;100568.84;;;14.97;80.16
8699;BME280;4386;51.236;6.742;2022-09-16T05:11:20;100569.84;;;14.96;80.21
8699;BME280;4386;51.236;6.742;2022-09-16T05:12:24;100570.81;;;14.95;80.21
8699;BME280;4386;51.236;6.742;2022-09-16T05:13:27;100564.81;;;14.93;80.18
8699;BME280;4386;51.236;6.742;2022-09-16T05:14:30;100569.28;;;14.93;80.18
8699;BME280;4386;51.236;6.742;2022-09-16T05:15:33;100564.13;;;14.91;80.23
8699;BME280;4386;51.236;6.742;2022-09-16T05:16:37;100569.47;;;14.91;80.30
8699;BME280;4386;51.236;6.742;2022-09-16T05:17:40;100575.78;;;14.90;80.27
8699;BME280;4386;51.236;6.742;2022-09-16T05:18:53;100572.44;;;14.88;80.16
8699;BME280;4386;51.236;6.742;2022-09-16T05:19:56;100577.06;;;14.86;80.23
8699;BME280;4386;51.236;6.742;2022-09-16T05:20:59;100560.38;;;14.84;80.15
8699;BME280;4386;51.236;6.742;2022-09-16T05:22:02;100570.34;;;14.82;80.02
8699;BME280;4386;51.236;6.742;2022-09-16T05:23:07;100566.03;;;14.81;80.10
8699;BME280;4386;51.236;6.742;2022-09-16T05:24:12;100569.00;;;14.78;80.24
8699;BME280;4386;51.236;6.742;2022-09-16T05:25:15;100570.94;;;14.76;80.35
8699;BME280;4386;51.236;6.742;2022-09-16T05:26:19;100572.94;;;14.74;79.98
8699;BME280;4386;51.236;6.742;2022-09-16T05:27:22;100569.59;;;14.72;80.10
8699;BME280;4386;51.236;6.742;2022-09-16T05:28:23;100573.91;;;14.73;80.17
8699;BME280;4386;51.236;6.742;2022-09-16T05:29:26;100574.94;;;14.72;80.08
8699;BME280;4386;51.236;6.742;2022-09-16T05:30:28;100577.59;;;14.72;79.76
8699;BME280;4386;51.236;6.742;2022-09-16T05:31:32;100581.94;;;14.73;79.75
8699;BME280;4386;51.236;6.742;2022-09-16T05:32:33;100576.75;;;14.72;79.96
8699;BME280;4386;51.236;6.742;2022-09-16T05:33:36;100587.25;;;14.73;79.55
8699;BME280;4386;51.236;6.742;2022-09-16T05:34:38;100580.28;;;14.72;79.80
8699;BME280;4386;51.236;6.742;2022-09-16T05:35:41;100583.63;;;14.74;79.59
8699;BME280;4386;51.236;6.742;2022-09-16T05:36:43;100576.44;;;14.75;79.63
8699;BME280;4386;51.236;6.742;2022-09-16T05:37:48;100583.44;;;14.76;79.62
8699;BME280;4386;51.236;6.742;2022-09-16T05:38:50;100584.28;;;14.76;79.42
8699;BME280;4386;51.236;6.742;2022-09-16T05:40:14;100578.81;;;14.78;79.45
8699;BME280;4386;51.236;6.742;2022-09-16T05:41:16;100581.50;;;14.78;79.37
8699;BME280;4386;51.236;6.742;2022-09-16T05:42:19;100580.66;;;14.77;79.42
8699;BME280;4386;51.236;6.742;2022-09-16T05:43:20;100583.31;;;14.77;79.22
8699;BME280;4386;51.236;6.742;2022-09-16T05:44:23;100574.47;;;14.77;79.01
8699;BME280;4386;51.236;6.742;2022-09-16T05:45:25;100580.78;;;14.76;79.23
8699;BME280;4386;51.236;6.742;2022-09-16T05:46:33;100582.63;;;14.75;78.95
8699;BME280;4386;51.236;6.742;2022-09-16T05:47:35;100581.94;;;14.73;78.70
8699;BME280;4386;51.236;6.742;2022-09-16T05:48:38;100578.56;;;14.71;79.06
8699;BME280;4386;51.236;6.742;2022-09-16T05:49:39;100579.56;;;14.70;78.71
8699;BME280;4386;51.236;6.742;2022-09-16T05:50:50;100582.38;;;14.69;78.86
8699;BME280;4386;51.236;6.742;2022-09-16T05:51:52;100576.22;;;14.68;78.47
8699;BME280;4386;51.236;6.742;2022-09-16T05:52:55;100579.84;;;14.67;78.67
8699;BME280;4386;51.236;6.742;2022-09-16T05:53:58;100578.03;;;14.68;78.67